This is the latest recevied weather packets stored in our database for station/object N1MCJ. If no packets are shown the sender has not sent any weather packets the latest 1 day(s).
| Time | Temp. | Humidity | Pressure | Rain* | Wind** | Luminosity | Snow |
|---|---|---|---|---|---|---|---|
| 1777982282 | 13.33° C | 89% | 1002.7 hPa | 0 mm | 0.89 m/s, 103° | 39 W/m² | - |
| 1777981379 | 12.22° C | 91% | 1002.7 hPa | 0 mm | 0.89 m/s, 28° | 36 W/m² | - |
| 1777980480 | 11.67° C | 95% | 1002.8 hPa | 0 mm | 0.45 m/s, 7° | 35 W/m² | - |
| 1777979579 | 11.11° C | 97% | 1002.8 hPa | 0 mm | 0 m/s | 16 W/m² | - |
| 1777978676 | 10.56° C | 98% | 1002.4 hPa | 0 mm | 0.45 m/s, 26° | 31 W/m² | - |
| 1777977772 | 10° C | 98% | 1002.2 hPa | 0 mm | 0 m/s | 26 W/m² | - |
| 1777976868 | 10° C | 98% | 1001.8 hPa | 0 mm | 0 m/s | 12 W/m² | - |
| 1777975966 | 10° C | 98% | 1001.9 hPa | 0 mm | 0 m/s | 5 W/m² | - |
| 1777975067 | 10° C | 98% | 1001.8 hPa | 0 mm | 0.45 m/s, 33° | 0 W/m² | - |
| 1777974163 | 9.44° C | 98% | 1001.6 hPa | 0 mm | 0 m/s | 0 W/m² | - |
| 1777973259 | 9.44° C | 98% | 1001.6 hPa | 0 mm | 0 m/s | 0 W/m² | - |
| 1777972358 | 9.44° C | 97% | 1001.7 hPa | 0 mm | 0 m/s | 0 W/m² | - |
| 1777971457 | 9.44° C | 97% | 1001.6 hPa | 0 mm | 0 m/s | 0 W/m² | - |
| 1777970557 | 8.89° C | 97% | 1001.6 hPa | 0 mm | 0 m/s | 0 W/m² | - |
| 1777969652 | 9.44° C | 96% | 1001.9 hPa | 0 mm | 0 m/s | 0 W/m² | - |
| 1777968749 | 9.44° C | 95% | 1001.7 hPa | 0 mm | 0 m/s | 0 W/m² | - |
| 1777967848 | 9.44° C | 95% | 1001.8 hPa | 0 mm | 0 m/s | 0 W/m² | - |
| 1777966946 | 9.44° C | 94% | 1001.7 hPa | 0 mm | 0 m/s | 0 W/m² | - |
| 1777966043 | 9.44° C | 93% | 1001.7 hPa | 0 mm | 0 m/s | 0 W/m² | - |
| 1777965138 | 9.44° C | 92% | 1001.8 hPa | 0 mm | 0 m/s | 0 W/m² | - |
| 1777964234 | 10° C | 91% | 1002 hPa | 0 mm | 0 m/s | 0 W/m² | - |
| 1777963332 | 10° C | 90% | 1001.8 hPa | 0 mm | 0 m/s | 0 W/m² | - |
* Rain latest hour (hover to see other rain measurements)
** Current wind speed in m/s (hover to see current wind gust speed)